Time;durP1;ratioP1;P1;durP2;ratioP2;P2;SDS_P1;SDS_P2;PMS_P1;PMS_P2;Temp;Humidity;BMP_temperature;BMP_pressure;BME280_temperature;BME280_humidity;BME280_pressure;Samples;Min_cycle;Max_cycle;Signal;HPM_P1;HPM_P2
2024/03/16 00:00:18;;;;;;;0.00;0.00;;;;;;;5.02;100.00;100237.28;6211611;23;20343;-75
2024/03/16 00:02:44;;;;;;;0.00;0.00;;;;;;;4.95;100.00;100228.44;6156932;23;20014;-74
2024/03/16 00:05:11;;;;;;;0.10;0.10;;;;;;;4.96;100.00;100235.50;6160675;23;20012;-73
2024/03/16 00:07:36;;;;;;;0.00;0.00;;;;;;;5.03;100.00;100249.75;6158179;23;20116;-75
2024/03/16 00:10:01;;;;;;;0.00;0.00;;;;;;;4.97;100.00;100248.00;6185498;23;20419;-74
2024/03/16 00:12:28;;;;;;;0.00;0.00;;;;;;;4.97;100.00;100258.84;6157487;23;20454;-75
2024/03/16 00:14:53;;;;;;;0.00;0.00;;;;;;;4.93;100.00;100252.22;6184502;23;20012;-74
2024/03/16 00:17:20;;;;;;;0.10;0.10;;;;;;;4.89;100.00;100253.75;6161514;23;20088;-75
2024/03/16 00:19:46;;;;;;;0.00;0.00;;;;;;;4.96;100.00;100268.00;6133788;23;20343;-75
2024/03/16 00:22:11;;;;;;;0.00;0.00;;;;;;;4.84;100.00;100270.69;6136000;23;20005;-75
2024/03/16 00:24:40;;;;;;;0.00;0.00;;;;;;;4.72;100.00;100262.53;6181857;23;20004;-74
2024/03/16 00:27:07;;;;;;;0.10;0.10;;;;;;;4.79;100.00;100272.44;6135532;23;20031;-74
2024/03/16 00:29:35;;;;;;;0.00;0.00;;;;;;;4.66;100.00;100273.50;6157433;23;20012;-75
2024/03/16 00:32:01;;;;;;;0.10;0.10;;;;;;;4.54;100.00;100265.31;6161224;23;20417;-74
2024/03/16 00:34:26;;;;;;;0.10;0.10;;;;;;;4.68;100.00;100288.44;6159869;23;20009;-74
2024/03/16 00:36:52;;;;;;;0.00;0.00;;;;;;;4.55;100.00;100284.03;6183630;23;20091;-75
2024/03/16 00:39:23;;;;;;;0.00;0.00;;;;;;;4.55;100.00;100277.78;6160571;23;20008;-76
2024/03/16 00:41:49;;;;;;;0.10;0.10;;;;;;;4.57;100.00;100286.53;6159709;23;20019;-76
2024/03/16 00:44:14;;;;;;;0.00;0.00;;;;;;;4.64;100.00;100286.44;6212245;23;20008;-75
2024/03/16 00:46:39;;;;;;;0.00;0.00;;;;;;;4.71;100.00;100306.94;6159232;23;20013;-77
2024/03/16 00:49:05;;;;;;;0.00;0.00;;;;;;;4.55;100.00;100285.91;6185034;23;20032;-75
2024/03/16 00:51:30;;;;;;;0.00;0.00;;;;;;;4.62;100.00;100291.25;6159082;23;20062;-75
2024/03/16 00:53:56;;;;;;;0.00;0.00;;;;;;;4.74;100.00;100315.69;6184520;23;20009;-75
2024/03/16 00:56:24;;;;;;;0.10;0.10;;;;;;;4.59;100.00;100295.25;6159642;23;20096;-76
2024/03/16 00:58:50;;;;;;;0.00;0.00;;;;;;;4.64;100.00;100318.94;6153364;23;20017;-76
2024/03/16 01:01:17;;;;;;;0.10;0.10;;;;;;;4.49;100.00;100306.63;6159870;23;20304;-77
2024/03/16 01:03:43;;;;;;;0.00;0.00;;;;;;;4.74;100.00;100334.63;6159617;23;20008;-76
2024/03/16 01:06:09;;;;;;;0.00;0.00;;;;;;;4.59;100.00;100322.31;6206350;23;20080;-75
2024/03/16 01:08:40;;;;;;;0.00;0.00;;;;;;;4.69;100.00;100332.63;6161010;23;20309;-73
2024/03/16 01:11:05;;;;;;;0.00;0.00;;;;;;;4.51;100.00;100309.94;6207400;23;20015;-75
2024/03/16 01:13:31;;;;;;;0.10;0.10;;;;;;;4.57;100.00;100313.63;6185482;23;20412;-75
2024/03/16 01:16:04;;;;;;;0.00;0.00;;;;;;;4.59;100.00;100338.59;6207450;23;20000;-77
2024/03/16 01:18:29;;;;;;;0.00;0.00;;;;;;;4.41;100.00;100325.06;6187794;23;20438;-76
2024/03/16 01:20:55;;;;;;;0.00;0.00;;;;;;;4.24;100.00;100331.09;6158088;23;20004;-76
2024/03/16 01:23:23;;;;;;;0.00;0.00;;;;;;;4.27;100.00;100346.06;6185717;23;20007;-74
2024/03/16 01:25:53;;;;;;;0.00;0.00;;;;;;;4.30;100.00;100362.66;6212053;22;20024;-76
2024/03/16 01:28:19;;;;;;;0.00;0.00;;;;;;;4.24;100.00;100358.16;6158354;23;20016;-76
2024/03/16 01:30:44;;;;;;;0.10;0.10;;;;;;;4.23;100.00;100378.16;6161354;23;20013;-75
2024/03/16 01:33:10;;;;;;;0.10;0.10;;;;;;;4.18;100.00;100359.06;6155826;23;20353;-77
2024/03/16 01:35:36;;;;;;;0.00;0.00;;;;;;;4.30;100.00;100375.38;6160016;23;20012;-75
2024/03/16 01:38:11;;;;;;;0.00;0.00;;;;;;;4.28;100.00;100378.31;6180832;23;20012;-74
2024/03/16 01:40:37;;;;;;;0.00;0.00;;;;;;;4.42;100.00;100402.53;6135937;23;20114;-75
2024/03/16 01:43:02;;;;;;;0.00;0.00;;;;;;;4.33;100.00;100380.34;6179684;23;20420;-73
2024/03/16 01:45:28;;;;;;;0.00;0.00;;;;;;;4.28;100.00;100386.44;6134739;23;20012;-75
2024/03/16 01:47:54;;;;;;;0.00;0.00;;;;;;;4.12;100.00;100370.81;6184459;23;20076;-76
2024/03/16 01:50:20;;;;;;;0.10;0.10;;;;;;;4.12;100.00;100395.16;6206961;23;20008;-75
2024/03/16 01:52:47;;;;;;;0.10;0.10;;;;;;;4.07;100.00;100400.41;6184275;23;20427;-73
2024/03/16 01:55:12;;;;;;;0.10;0.10;;;;;;;4.06;100.00;100409.56;6131641;23;20004;-75
2024/03/16 01:57:38;;;;;;;0.00;0.00;;;;;;;3.86;100.00;100366.50;6159086;23;20008;-75
2024/03/16 02:00:05;;;;;;;0.03;0.03;;;;;;;4.11;100.00;100412.44;6184444;23;20008;-76
2024/03/16 02:02:33;;;;;;;0.10;0.10;;;;;;;4.12;100.00;100427.63;6155866;23;20035;-74
2024/03/16 02:05:06;;;;;;;0.00;0.00;;;;;;;3.86;100.00;100399.78;6184533;23;20013;-78
2024/03/16 02:07:36;;;;;;;0.10;0.10;;;;;;;4.00;100.00;100430.22;6180486;23;20054;-75
2024/03/16 02:10:04;;;;;;;0.10;0.10;;;;;;;4.00;100.00;100436.47;6183703;23;20001;-75
2024/03/16 02:12:33;;;;;;;0.00;0.00;;;;;;;3.96;100.00;100427.16;6180904;23;20008;-76
2024/03/16 02:15:02;;;;;;;0.10;0.10;;;;;;;3.75;100.00;100408.59;6209535;23;20004;-75
2024/03/16 02:17:28;;;;;;;0.00;0.00;;;;;;;3.52;100.00;100382.16;6159334;23;20011;-74
2024/03/16 02:19:53;;;;;;;0.00;0.00;;;;;;;3.77;100.00;100420.06;6209526;23;20009;-75
2024/03/16 02:22:19;;;;;;;0.00;0.00;;;;;;;3.69;100.00;100412.19;6158861;23;20051;-75
2024/03/16 02:24:45;;;;;;;0.00;0.00;;;;;;;3.57;100.00;100393.97;6180833;23;20012;-76
2024/03/16 02:27:11;;;;;;;0.10;0.10;;;;;;;3.76;100.00;100431.91;6183121;23;20028;-74
2024/03/16 02:29:37;;;;;;;0.00;0.00;;;;;;;3.63;100.00;100422.84;6179518;23;20284;-77
2024/03/16 02:32:05;;;;;;;0.10;0.10;;;;;;;3.61;100.00;100424.94;6209746;23;20061;-74
2024/03/16 02:34:35;;;;;;;0.10;0.10;;;;;;;3.49;100.00;100422.13;6179357;23;20001;-76
2024/03/16 02:37:04;;;;;;;0.10;0.10;;;;;;;3.60;100.00;100444.91;6159496;23;20132;-75
2024/03/16 02:39:31;;;;;;;0.00;0.00;;;;;;;3.55;100.00;100441.19;6158583;23;20004;-76
2024/03/16 02:42:02;;;;;;;0.10;0.10;;;;;;;3.69;100.00;100464.41;6155480;23;20019;-76
2024/03/16 02:44:29;;;;;;;0.00;0.00;;;;;;;3.70;100.00;100459.84;6184163;23;20004;-75
2024/03/16 02:46:58;;;;;;;0.00;0.00;;;;;;;3.62;100.00;100464.47;6179730;23;20428;-76
2024/03/16 02:49:24;;;;;;;0.00;0.00;;;;;;;3.57;100.00;100466.16;6210536;23;20000;-76
2024/03/16 02:51:49;;;;;;;0.10;0.10;;;;;;;3.35;100.00;100463.81;6179151;23;20007;-74
2024/03/16 02:54:15;;;;;;;0.10;0.10;;;;;;;3.21;100.00;100464.94;6210952;23;20035;-74
2024/03/16 02:56:44;;;;;;;0.10;0.10;;;;;;;3.15;100.00;100474.72;6153543;23;20027;-74
2024/03/16 02:59:17;;;;;;;0.10;0.10;;;;;;;2.89;100.00;100454.91;6208531;23;20004;-75
2024/03/16 03:01:44;;;;;;;0.10;0.10;;;;;;;2.90;100.00;100486.25;6211785;23;20074;-75
2024/03/16 03:04:12;;;;;;;0.10;0.10;;;;;;;2.74;100.00;100479.47;6179960;23;20020;-75
2024/03/16 03:06:38;;;;;;;0.00;0.00;;;;;;;2.87;100.00;100505.59;6211492;23;20482;-74
2024/03/16 03:09:07;;;;;;;0.00;0.00;;;;;;;2.87;100.00;100508.31;6180679;23;20458;-74
2024/03/16 03:11:32;;;;;;;0.10;0.10;;;;;;;2.77;100.00;100499.81;6136844;23;20039;-73
2024/03/16 03:13:58;;;;;;;0.10;0.10;;;;;;;2.58;100.00;100480.75;6184590;23;20004;-73
2024/03/16 03:16:24;;;;;;;0.10;0.10;;;;;;;2.66;100.00;100497.75;6180183;23;20012;-74
2024/03/16 03:18:53;;;;;;;0.00;0.00;;;;;;;2.50;100.00;100478.28;6160422;23;20100;-75
2024/03/16 03:21:19;;;;;;;0.00;0.00;;;;;;;2.48;100.00;100488.47;6177691;23;20509;-74
2024/03/16 03:23:44;;;;;;;0.00;0.00;;;;;;;2.48;100.00;100495.75;6184723;23;20000;-74
2024/03/16 03:26:13;;;;;;;0.00;0.00;;;;;;;2.47;100.00;100499.47;6154975;23;20154;-74
2024/03/16 03:28:39;;;;;;;0.10;0.10;;;;;;;2.43;100.00;100505.28;6184197;23;20301;-74
2024/03/16 03:31:09;;;;;;;0.10;0.10;;;;;;;2.40;100.00;100511.13;6157804;23;20039;-74
2024/03/16 03:33:34;;;;;;;0.00;0.00;;;;;;;2.36;100.00;100509.88;6184711;23;20439;-74
2024/03/16 03:36:02;;;;;;;0.00;0.00;;;;;;;2.44;100.00;100525.84;6186446;23;20000;-74
2024/03/16 03:38:28;;;;;;;0.10;0.10;;;;;;;2.42;100.00;100536.03;6207428;23;20012;-74
2024/03/16 03:40:54;;;;;;;0.10;0.10;;;;;;;2.43;100.00;100544.97;6211123;23;20012;-74
2024/03/16 03:43:21;;;;;;;0.10;0.10;;;;;;;2.36;100.00;100530.63;6180695;23;20012;-73
2024/03/16 03:45:52;;;;;;;0.00;0.00;;;;;;;2.35;100.00;100539.75;6183672;23;20008;-74
2024/03/16 03:48:35;;;;;;;0.10;0.10;;;;;;;2.22;100.00;100533.34;6181557;23;20012;-74
2024/03/16 03:51:01;;;;;;;0.00;0.00;;;;;;;2.31;100.00;100560.09;6211413;23;20001;-74
2024/03/16 03:53:27;;;;;;;0.00;0.00;;;;;;;2.25;100.00;100553.69;6180052;23;20016;-74
2024/03/16 03:55:53;;;;;;;0.10;0.10;;;;;;;2.18;100.00;100545.59;6161133;23;20005;-74
2024/03/16 03:58:20;;;;;;;0.00;0.00;;;;;;;2.01;100.00;100539.75;6184797;23;20001;-73
2024/03/16 04:00:47;;;;;;;0.00;0.00;;;;;;;2.17;100.00;100570.09;6155512;23;20562;-75
2024/03/16 04:03:13;;;;;;;0.00;0.00;;;;;;;2.07;100.00;100559.69;6212085;23;20005;-74
2024/03/16 04:05:38;;;;;;;0.10;0.10;;;;;;;2.15;100.00;100575.69;6177097;23;20027;-75
2024/03/16 04:08:05;;;;;;;0.00;0.00;;;;;;;2.17;100.00;100581.69;6208674;23;19997;-74
2024/03/16 04:10:34;;;;;;;0.08;0.08;;;;;;;2.19;100.00;100584.19;6183191;23;20494;-74
2024/03/16 04:12:59;;;;;;;0.00;0.00;;;;;;;2.22;100.00;100600.81;6160416;23;20498;-75
2024/03/16 04:15:27;;;;;;;0.00;0.00;;;;;;;2.10;100.00;100586.25;6186839;23;20004;-74
2024/03/16 04:17:54;;;;;;;0.10;0.10;;;;;;;2.10;100.00;100588.97;6160595;23;20421;-75
2024/03/16 04:20:21;;;;;;;0.08;0.08;;;;;;;2.09;100.00;100595.41;6137742;23;20386;-75
2024/03/16 04:22:48;;;;;;;0.10;0.10;;;;;;;1.88;100.00;100572.97;6211076;23;20001;-76
2024/03/16 04:25:13;;;;;;;0.10;0.10;;;;;;;2.00;100.00;100588.53;6159632;23;20000;-75
2024/03/16 04:27:40;;;;;;;0.10;0.10;;;;;;;2.03;100.00;100597.06;6183629;23;20031;-74
2024/03/16 04:30:06;;;;;;;0.10;0.10;;;;;;;1.94;100.00;100584.78;6185741;23;20005;-78
2024/03/16 04:32:33;;;;;;;0.00;0.00;;;;;;;1.79;100.00;100574.19;6183919;23;20009;-76
2024/03/16 04:34:59;;;;;;;0.10;0.10;;;;;;;1.97;100.00;100603.28;6184754;23;20012;-74
2024/03/16 04:37:25;;;;;;;0.10;0.10;;;;;;;1.98;100.00;100599.53;6211538;23;20008;-75
2024/03/16 04:39:51;;;;;;;0.00;0.00;;;;;;;1.97;100.00;100592.50;6159264;23;20044;-74
2024/03/16 04:42:25;;;;;;;0.00;0.00;;;;;;;2.04;100.00;100597.88;6159070;23;20028;-74
2024/03/16 04:44:51;;;;;;;0.00;0.00;;;;;;;1.99;100.00;100576.09;6184860;23;19993;-74
2024/03/16 04:47:17;;;;;;;0.10;0.10;;;;;;;2.18;100.00;100604.97;6213433;23;20062;-75
2024/03/16 04:49:43;;;;;;;0.05;0.05;;;;;;;2.09;100.00;100598.09;6185205;23;20032;-75
2024/03/16 04:52:08;;;;;;;0.00;0.00;;;;;;;1.99;100.00;100589.59;6139137;23;20020;-75
2024/03/16 04:54:34;;;;;;;0.10;0.10;;;;;;;1.89;100.00;100580.00;6211961;23;20323;-75
2024/03/16 04:57:05;;;;;;;0.10;0.10;;;;;;;2.06;100.00;100609.31;6209615;23;20004;-75
2024/03/16 04:59:31;;;;;;;0.00;0.00;;;;;;;2.06;100.00;100615.53;6183121;23;20004;-75
2024/03/16 05:01:57;;;;;;;0.00;0.00;;;;;;;1.95;100.00;100605.34;6161488;23;20035;-74
2024/03/16 05:04:22;;;;;;;0.00;0.00;;;;;;;2.04;100.00;100627.56;6179958;23;20004;-74
2024/03/16 05:06:48;;;;;;;0.00;0.00;;;;;;;2.00;100.00;100629.00;6158481;23;20701;-75
2024/03/16 05:09:13;;;;;;;0.00;0.00;;;;;;;1.97;100.00;100622.16;6181975;23;20091;-74
2024/03/16 05:11:39;;;;;;;0.00;0.00;;;;;;;1.99;100.00;100633.56;6181773;23;20095;-75
2024/03/16 05:14:08;;;;;;;0.00;0.00;;;;;;;1.96;100.00;100633.97;6133675;23;20016;-74
2024/03/16 05:16:34;;;;;;;0.00;0.00;;;;;;;1.88;100.00;100631.47;6182331;23;20058;-74
2024/03/16 05:19:04;;;;;;;0.00;0.00;;;;;;;1.87;100.00;100625.25;6184907;23;20075;-74
2024/03/16 05:21:30;;;;;;;0.00;0.00;;;;;;;1.91;100.00;100637.28;6206775;23;20080;-74
2024/03/16 05:23:56;;;;;;;0.00;0.00;;;;;;;1.90;100.00;100641.00;6159063;23;20039;-74
2024/03/16 05:26:22;;;;;;;0.00;0.00;;;;;;;1.83;100.00;100620.47;6156333;23;20752;-74
2024/03/16 05:28:47;;;;;;;0.10;0.10;;;;;;;1.91;100.00;100631.03;6182643;23;20000;-74
2024/03/16 05:31:13;;;;;;;0.10;0.10;;;;;;;1.91;100.00;100637.28;6157265;23;20012;-75
2024/03/16 05:33:38;;;;;;;0.10;0.10;;;;;;;1.84;100.00;100631.03;6181048;23;20004;-74
2024/03/16 05:36:12;;;;;;;0.10;0.10;;;;;;;1.83;100.00;100623.97;6160691;23;20016;-76
2024/03/16 05:38:40;;;;;;;0.10;0.10;;;;;;;1.80;100.00;100619.00;6161649;23;20009;-76
2024/03/16 05:41:06;;;;;;;0.00;0.00;;;;;;;1.83;100.00;100621.28;6160463;23;20095;-76
2024/03/16 05:43:32;;;;;;;0.00;0.00;;;;;;;1.83;100.00;100623.97;6183003;23;20005;-76
2024/03/16 05:45:58;;;;;;;0.00;0.00;;;;;;;1.81;100.00;100628.75;6159973;23;20013;-77
2024/03/16 05:48:24;;;;;;;0.00;0.00;;;;;;;1.77;100.00;100619.41;6207676;23;20043;-77
2024/03/16 05:50:53;;;;;;;0.00;0.00;;;;;;;1.88;100.00;100640.41;6135184;23;20016;-78
2024/03/16 05:53:19;;;;;;;0.00;0.00;;;;;;;2.00;100.00;100650.56;6184309;23;20013;-77
2024/03/16 05:55:45;;;;;;;0.10;0.10;;;;;;;2.11;100.00;100658.06;6159585;23;20012;-78
2024/03/16 05:58:10;;;;;;;0.00;0.00;;;;;;;2.11;100.00;100668.03;6185348;23;20719;-76
2024/03/16 06:00:37;;;;;;;0.10;0.10;;;;;;;2.10;100.00;100667.19;6134803;23;20086;-77
2024/03/16 06:03:06;;;;;;;0.10;0.10;;;;;;;2.19;100.00;100684.88;6139485;23;20335;-76
2024/03/16 06:05:38;;;;;;;0.10;0.10;;;;;;;2.12;100.00;100684.03;6211469;23;20005;-77
2024/03/16 06:08:07;;;;;;;0.10;0.10;;;;;;;1.97;100.00;100673.41;6186047;23;20059;-77
2024/03/16 06:10:33;;;;;;;0.00;0.00;;;;;;;1.94;100.00;100678.38;6189207;23;20079;-77
2024/03/16 06:12:59;;;;;;;0.10;0.10;;;;;;;1.91;100.00;100683.13;6182321;23;20339;-76
2024/03/16 06:15:25;;;;;;;0.10;0.10;;;;;;;1.90;100.00;100678.78;6185465;23;20012;-77
2024/03/16 06:17:52;;;;;;;0.10;0.10;;;;;;;1.89;100.00;100673.59;6156146;23;20095;-73
2024/03/16 06:20:18;;;;;;;0.00;0.00;;;;;;;1.84;100.00;100678.75;6186360;23;20005;-75
2024/03/16 06:22:47;;;;;;;0.10;0.10;;;;;;;1.84;100.00;100676.88;6184258;23;20011;-78
2024/03/16 06:25:13;;;;;;;0.00;0.00;;;;;;;1.71;100.00;100666.06;6203306;23;20454;-78
2024/03/16 06:28:05;;;;;;;0.00;0.00;;;;;;;1.78;100.00;100688.47;6156504;23;20028;-79
2024/03/16 06:30:30;;;;;;;0.00;0.00;;;;;;;1.73;100.00;100693.63;6164743;23;20432;-79
2024/03/16 06:33:11;;;;;;;0.10;0.10;;;;;;;1.68;100.00;100685.31;6160441;23;20019;-79
2024/03/16 06:35:36;;;;;;;0.00;0.00;;;;;;;1.72;100.00;100694.66;6186897;23;20008;-80
2024/03/16 06:38:05;;;;;;;0.00;0.00;;;;;;;1.64;100.00;100684.91;6185421;23;20012;-79
2024/03/16 06:40:30;;;;;;;0.00;0.00;;;;;;;1.66;100.00;100682.00;6181275;23;20856;-80
2024/03/16 06:42:56;;;;;;;0.00;0.00;;;;;;;1.78;100.00;100693.84;6135706;23;20012;-79
2024/03/16 06:45:21;;;;;;;0.10;0.10;;;;;;;1.81;100.00;100706.97;6209785;23;20008;-76
2024/03/16 06:47:47;;;;;;;0.00;0.00;;;;;;;1.83;100.00;100715.66;6185550;23;20010;-79
2024/03/16 06:50:13;;;;;;;0.00;0.00;;;;;;;1.90;100.00;100718.41;6185954;23;20095;-78
2024/03/16 06:52:41;;;;;;;0.10;0.10;;;;;;;1.90;100.00;100727.31;6156884;23;20035;-79
2024/03/16 06:55:09;;;;;;;0.10;0.10;;;;;;;1.88;100.00;100732.09;6185783;23;20008;-78
2024/03/16 06:57:34;;;;;;;0.08;0.08;;;;;;;1.76;100.00;100714.00;6183165;23;20435;-79
2024/03/16 07:00:00;;;;;;;0.00;0.00;;;;;;;1.89;100.00;100741.81;6136675;23;20092;-79
2024/03/16 07:02:25;;;;;;;0.10;0.10;;;;;;;1.92;100.00;100741.44;6183615;23;20043;-78
2024/03/16 07:04:51;;;;;;;0.00;0.00;;;;;;;2.04;100.00;100746.25;6136495;23;20042;-80
2024/03/16 07:07:17;;;;;;;0.10;0.10;;;;;;;2.08;100.00;100755.59;6136100;23;20723;-78
2024/03/16 07:09:42;;;;;;;0.00;0.00;;;;;;;2.21;100.00;100755.66;6182784;23;20069;-78
2024/03/16 07:12:08;;;;;;;0.00;0.00;;;;;;;2.26;100.00;100752.34;6160714;23;20015;-78
2024/03/16 07:14:33;;;;;;;0.10;0.10;;;;;;;2.47;100.00;100767.56;6181413;23;20719;-77
2024/03/16 07:16:58;;;;;;;0.10;0.10;;;;;;;2.57;100.00;100762.59;6161333;23;20691;-78
2024/03/16 07:19:28;;;;;;;0.00;0.00;;;;;;;2.75;100.00;100772.81;6182923;23;20021;-79
2024/03/16 07:21:56;;;;;;;0.00;0.00;;;;;;;2.91;100.00;100765.34;6183265;23;20008;-78
2024/03/16 07:24:21;;;;;;;0.00;0.00;;;;;;;3.09;100.00;100764.72;6185750;23;20031;-78
2024/03/16 07:26:47;;;;;;;0.00;0.00;;;;;;;3.23;100.00;100758.28;6157210;23;21402;-78
2024/03/16 07:29:12;;;;;;;0.00;0.00;;;;;;;3.45;100.00;100768.84;6135139;23;20066;-77
2024/03/16 07:31:38;;;;;;;0.00;0.00;;;;;;;3.63;100.00;100771.72;6158238;23;20009;-76
2024/03/16 07:34:06;;;;;;;0.10;0.10;;;;;;;3.82;100.00;100761.88;6211011;23;20087;-76
2024/03/16 07:36:31;;;;;;;0.10;0.10;;;;;;;4.11;100.00;100786.75;6182670;23;20012;-79
2024/03/16 07:38:57;;;;;;;0.00;0.00;;;;;;;4.28;100.00;100792.53;6182020;23;20005;-77
2024/03/16 07:41:23;;;;;;;0.00;0.00;;;;;;;4.46;100.00;100783.69;6185431;23;20144;-75
2024/03/16 07:43:48;;;;;;;0.00;0.00;;;;;;;4.66;100.00;100788.19;6206826;23;20013;-76
2024/03/16 07:46:14;;;;;;;0.00;0.00;;;;;;;5.06;100.00;100794.13;6212221;23;20011;-76
2024/03/16 07:48:39;;;;;;;0.10;0.10;;;;;;;5.52;100.00;100783.09;6182660;23;20012;-77
2024/03/16 07:51:05;;;;;;;0.00;0.00;;;;;;;5.83;100.00;100770.50;6135817;23;20434;-77
2024/03/16 07:53:31;;;;;;;0.00;0.00;;;;;;;5.94;100.00;100769.72;6159507;23;20009;-76
2024/03/16 07:55:58;;;;;;;0.00;0.00;;;;;;;5.94;100.00;100767.84;6156105;23;20039;-78
2024/03/16 07:58:24;;;;;;;0.00;0.00;;;;;;;6.32;100.00;100782.22;6185141;23;20657;-75
2024/03/16 08:00:49;;;;;;;0.10;0.10;;;;;;;7.15;100.00;100771.59;6155045;23;20012;-72
2024/03/16 08:03:15;;;;;;;0.10;0.10;;;;;;;8.40;100.00;100768.59;6210833;23;20043;-77
2024/03/16 08:05:43;;;;;;;0.00;0.00;;;;;;;10.46;100.00;100793.63;6181993;23;20009;-75
2024/03/16 08:08:22;;;;;;;0.00;0.00;;;;;;;12.58;100.00;100780.28;6161303;23;20067;-81
2024/03/16 08:10:48;;;;;;;0.00;0.00;;;;;;;14.81;100.00;100774.91;6156447;23;20339;-75
2024/03/16 08:13:16;;;;;;;0.00;0.00;;;;;;;16.81;89.67;100773.84;6160732;23;20012;-77
2024/03/16 08:15:44;;;;;;;0.00;0.00;;;;;;;18.40;77.02;100791.44;6181360;23;20009;-76
2024/03/16 08:18:11;;;;;;;0.00;0.00;;;;;;;19.42;69.00;100806.84;6158189;23;20456;-75
2024/03/16 08:20:36;;;;;;;0.10;0.10;;;;;;;18.97;69.50;100814.03;6159205;23;20086;-76
2024/03/16 08:25:59;;;;;;;0.10;0.10;;;;;;;19.35;71.57;100805.34;6204668;22;20058;-77
2024/03/16 08:28:25;;;;;;;0.00;0.00;;;;;;;19.95;67.86;100811.56;6151974;23;20566;-78
2024/03/16 08:30:51;;;;;;;0.00;0.00;;;;;;;19.59;68.89;100800.56;6153021;23;20072;-76
2024/03/16 08:33:16;;;;;;;0.00;0.00;;;;;;;19.23;71.99;100798.72;6175601;23;20380;-75
2024/03/16 08:35:42;;;;;;;0.00;0.00;;;;;;;19.28;73.81;100809.69;6175580;23;20047;-76
2024/03/16 08:38:34;;;;;;;0.00;0.00;;;;;;;19.43;73.48;100776.00;6175206;23;20394;-75
2024/03/16 08:41:18;;;;;;;0.00;0.00;;;;;;;20.52;72.58;100804.38;6170035;23;20081;-81
2024/03/16 08:47:57;;;;;;;0.00;0.00;;;;;;;21.48;65.24;100800.75;6076236;23;20013;-82
2024/03/16 08:50:25;;;;;;;0.00;0.00;;;;;;;19.84;70.27;100776.91;6170359;23;20011;-76
2024/03/16 08:52:50;;;;;;;0.00;0.00;;;;;;;18.36;73.94;100809.84;6181912;23;20000;-76
2024/03/16 08:55:17;;;;;;;0.00;0.00;;;;;;;16.96;78.88;100838.28;6156073;23;20407;-76
2024/03/16 08:57:42;;;;;;;0.00;0.00;;;;;;;15.49;88.09;100833.03;6178481;23;20011;-76
2024/03/16 09:00:14;;;;;;;0.00;0.00;;;;;;;14.82;97.86;100853.63;6180313;23;20053;-77
2024/03/16 09:02:40;;;;;;;0.00;0.00;;;;;;;14.39;100.00;100842.25;6154085;23;20016;-76
2024/03/16 09:05:08;;;;;;;0.00;0.00;;;;;;;14.10;100.00;100842.88;6182155;23;20138;-76
2024/03/16 09:07:34;;;;;;;0.00;0.00;;;;;;;13.72;100.00;100841.63;6153250;23;20023;-77
2024/03/16 09:10:03;;;;;;;0.00;0.00;;;;;;;13.47;100.00;100845.22;6181068;23;20012;-76
2024/03/16 09:12:31;;;;;;;0.00;0.00;;;;;;;13.08;100.00;100844.63;6153156;23;20013;-76
2024/03/16 09:14:56;;;;;;;0.00;0.00;;;;;;;13.31;100.00;100839.69;6154689;23;20070;-77
2024/03/16 09:17:21;;;;;;;0.00;0.00;;;;;;;14.48;100.00;100859.84;6155067;23;20012;-76
2024/03/16 09:19:47;;;;;;;0.00;0.00;;;;;;;15.16;100.00;100846.53;6177467;23;20061;-76
2024/03/16 09:22:12;;;;;;;0.00;0.00;;;;;;;15.35;95.81;100860.44;6181297;23;20016;-76
2024/03/16 09:24:38;;;;;;;0.00;0.00;;;;;;;15.49;100.00;100846.81;6181034;23;20067;-78
2024/03/16 09:27:03;;;;;;;0.00;0.00;;;;;;;15.49;98.12;100842.16;6183880;23;20084;-77
2024/03/16 09:29:29;;;;;;;0.00;0.00;;;;;;;15.43;99.56;100840.53;6182912;23;20011;-76
2024/03/16 09:31:54;;;;;;;0.00;0.00;;;;;;;14.95;98.09;100818.31;6158446;23;20027;-76
2024/03/16 09:34:23;;;;;;;0.00;0.00;;;;;;;14.98;99.47;100840.59;6161271;23;20334;-75
2024/03/16 09:36:48;;;;;;;0.00;0.00;;;;;;;14.98;97.94;100857.13;6209299;23;20056;-78
2024/03/16 09:39:15;;;;;;;0.00;0.00;;;;;;;14.61;95.60;100852.06;6160996;23;20108;-77
2024/03/16 09:41:41;;;;;;;0.00;0.00;;;;;;;14.45;99.13;100863.13;6184000;23;20443;-77
2024/03/16 09:44:12;;;;;;;0.00;0.00;;;;;;;14.68;100.00;100852.63;6183552;23;20012;-77
2024/03/16 09:46:44;;;;;;;0.00;0.00;;;;;;;15.08;100.00;100841.63;6183081;23;20015;-77
2024/03/16 09:49:10;;;;;;;0.00;0.00;;;;;;;15.51;93.92;100848.19;6181778;23;20088;-77
2024/03/16 09:51:39;;;;;;;0.00;0.00;;;;;;;15.42;91.41;100849.06;6187444;23;20004;-76
2024/03/16 09:54:08;;;;;;;0.00;0.00;;;;;;;15.29;94.47;100845.88;6159516;23;20431;-77
2024/03/16 09:56:37;;;;;;;0.00;0.00;;;;;;;15.52;93.75;100855.34;6186817;23;20327;-76
2024/03/16 09:59:12;;;;;;;0.00;0.00;;;;;;;15.65;92.99;100859.38;6182648;23;20088;-76
2024/03/16 10:01:38;;;;;;;0.10;0.10;;;;;;;15.30;90.02;100854.97;6187927;23;20004;-75
2024/03/16 10:04:04;;;;;;;0.00;0.00;;;;;;;14.56;86.66;100869.44;6183000;23;20016;-77
2024/03/16 10:06:31;;;;;;;0.00;0.00;;;;;;;13.58;85.26;100855.06;6188423;23;20009;-76
2024/03/16 10:09:13;;;;;;;0.00;0.00;;;;;;;12.91;93.60;100855.84;6161400;23;20087;-76
2024/03/16 10:11:39;;;;;;;0.00;0.00;;;;;;;12.66;95.86;100845.63;6188968;23;20040;-76
2024/03/16 10:14:09;;;;;;;0.00;0.00;;;;;;;12.78;97.69;100850.06;6211548;23;19993;-76
2024/03/16 10:16:35;;;;;;;0.00;0.00;;;;;;;12.83;98.37;100837.13;6184989;23;20004;-76
2024/03/16 10:19:00;;;;;;;0.00;0.00;;;;;;;13.17;98.20;100852.28;6163516;23;20008;-76
2024/03/16 10:21:28;;;;;;;0.00;0.00;;;;;;;13.39;94.60;100843.81;6183044;23;20012;-77
2024/03/16 10:23:57;;;;;;;0.00;0.00;;;;;;;13.54;92.09;100851.25;6162812;23;20094;-76
2024/03/16 10:26:23;;;;;;;0.00;0.00;;;;;;;13.71;86.91;100868.28;6159831;23;20021;-78
2024/03/16 10:28:50;;;;;;;0.00;0.00;;;;;;;13.75;85.18;100863.84;6159098;23;20147;-77
2024/03/16 10:31:22;;;;;;;0.00;0.00;;;;;;;14.29;80.69;100861.53;6185166;23;20427;-78
2024/03/16 10:33:48;;;;;;;0.00;0.00;;;;;;;15.43;80.78;100870.84;6160088;23;20008;-80
2024/03/16 10:36:17;;;;;;;0.00;0.00;;;;;;;17.18;73.38;100857.84;6161622;23;20028;-78
2024/03/16 10:38:47;;;;;;;0.00;0.00;;;;;;;17.82;65.62;100879.47;6158117;23;20379;-75
2024/03/16 10:41:16;;;;;;;0.00;0.00;;;;;;;17.47;64.75;100876.19;6187855;23;20007;-79
2024/03/16 10:43:46;;;;;;;0.00;0.00;;;;;;;17.08;60.71;100871.81;6183723;23;20019;-79
2024/03/16 10:46:15;;;;;;;0.00;0.00;;;;;;;16.23;59.17;100869.53;6161655;23;20008;-79
2024/03/16 10:48:41;;;;;;;0.00;0.00;;;;;;;15.55;58.70;100870.50;6151922;23;20020;-77
2024/03/16 10:51:08;;;;;;;0.00;0.00;;;;;;;15.62;57.45;100881.16;6174669;23;20008;-77
2024/03/16 10:53:39;;;;;;;0.00;0.00;;;;;;;15.81;57.77;100862.00;6192269;23;20757;-77
2024/03/16 10:56:07;;;;;;;0.00;0.00;;;;;;;16.81;56.62;100864.97;6167093;23;20012;-77
2024/03/16 10:58:33;;;;;;;0.00;0.00;;;;;;;17.45;54.72;100848.03;6166182;23;20382;-76
2024/03/16 11:01:07;;;;;;;0.00;0.00;;;;;;;17.85;52.69;100872.50;6190601;23;20005;-79
2024/03/16 11:03:36;;;;;;;0.00;0.00;;;;;;;17.25;51.40;100874.84;6169055;23;20009;-79
2024/03/16 11:06:17;;;;;;;0.00;0.00;;;;;;;16.71;51.74;100851.31;6194982;23;20024;-78
2024/03/16 11:08:50;;;;;;;0.00;0.00;;;;;;;17.00;53.05;100853.16;6195602;23;20008;-79
2024/03/16 11:11:30;;;;;;;0.00;0.00;;;;;;;17.10;49.81;100855.75;6219305;23;20379;-77
2024/03/16 11:14:09;;;;;;;0.00;0.00;;;;;;;16.71;50.20;100882.50;6189751;23;20000;-78
2024/03/16 11:16:42;;;;;;;0.00;0.00;;;;;;;16.17;50.22;100887.28;6190447;23;20013;-80
2024/03/16 11:19:17;;;;;;;0.00;0.00;;;;;;;15.26;50.86;100873.16;6185279;23;20001;-78
2024/03/16 11:21:59;;;;;;;0.00;0.00;;;;;;;14.61;52.60;100890.59;6219629;23;20008;-77
2024/03/16 11:24:28;;;;;;;0.00;0.00;;;;;;;13.74;54.32;100884.22;6192485;23;20082;-78
2024/03/16 11:26:55;;;;;;;0.00;0.00;;;;;;;13.34;55.66;100891.34;6194460;23;20044;-76
2024/03/16 11:29:23;;;;;;;0.00;0.00;;;;;;;12.99;56.85;100884.66;6144160;23;20000;-77
2024/03/16 11:31:53;;;;;;;0.00;0.00;;;;;;;12.80;58.48;100867.06;6171406;23;20012;-77